sensor_id;sensor_type;location;lat;lon;timestamp;pressure;altitude;pressure_sealevel;temperature;humidity
76095;BME280;64821;13.710;100.604;2023-11-19T00:00:21;101617.56;;;39.15;23.28
76095;BME280;64821;13.710;100.604;2023-11-19T00:01:25;101607.38;;;39.19;23.40
76095;BME280;64821;13.710;100.604;2023-11-19T00:02:29;101604.50;;;39.15;23.08
76095;BME280;64821;13.710;100.604;2023-11-19T00:03:33;101605.75;;;39.18;23.61
76095;BME280;64821;13.710;100.604;2023-11-19T00:04:37;101609.81;;;39.20;23.22
76095;BME280;64821;13.710;100.604;2023-11-19T00:05:41;101608.53;;;39.18;22.96
76095;BME280;64821;13.710;100.604;2023-11-19T00:06:45;101612.00;;;39.15;23.02
76095;BME280;64821;13.710;100.604;2023-11-19T00:07:49;101602.88;;;39.14;23.31
76095;BME280;64821;13.710;100.604;2023-11-19T00:08:54;101614.88;;;39.18;23.39
76095;BME280;64821;13.710;100.604;2023-11-19T00:09:58;101606.81;;;39.26;23.46
76095;BME280;64821;13.710;100.604;2023-11-19T00:11:02;101610.81;;;39.28;23.28
76095;BME280;64821;13.710;100.604;2023-11-19T00:12:07;101618.91;;;39.33;23.10
76095;BME280;64821;13.710;100.604;2023-11-19T00:13:10;101620.41;;;39.31;23.47
76095;BME280;64821;13.710;100.604;2023-11-19T00:14:14;101623.66;;;39.33;23.13
76095;BME280;64821;13.710;100.604;2023-11-19T00:15:18;101615.00;;;39.34;23.00
76095;BME280;64821;13.710;100.604;2023-11-19T00:16:23;101621.81;;;39.37;23.10
76095;BME280;64821;13.710;100.604;2023-11-19T00:17:26;101623.88;;;39.40;22.89
76095;BME280;64821;13.710;100.604;2023-11-19T00:18:30;101625.28;;;39.34;23.47
76095;BME280;64821;13.710;100.604;2023-11-19T00:19:34;101630.00;;;39.33;23.16
76095;BME280;64821;13.710;100.604;2023-11-19T00:20:38;101631.28;;;39.36;23.32
76095;BME280;64821;13.710;100.604;2023-11-19T00:21:42;101630.56;;;39.39;22.95
76095;BME280;64821;13.710;100.604;2023-11-19T00:22:46;101604.94;;;39.30;23.40
76095;BME280;64821;13.710;100.604;2023-11-19T00:23:53;101614.19;;;39.34;23.33
76095;BME280;64821;13.710;100.604;2023-11-19T00:24:57;101626.09;;;39.46;23.22
76095;BME280;64821;13.710;100.604;2023-11-19T00:26:02;101634.75;;;39.45;23.07
76095;BME280;64821;13.710;100.604;2023-11-19T00:27:06;101634.28;;;39.43;23.02
76095;BME280;64821;13.710;100.604;2023-11-19T00:28:10;101614.06;;;39.30;22.99
76095;BME280;64821;13.710;100.604;2023-11-19T00:29:13;101623.78;;;39.36;22.95
76095;BME280;64821;13.710;100.604;2023-11-19T00:30:17;101619.16;;;39.40;23.32
76095;BME280;64821;13.710;100.604;2023-11-19T00:31:21;101644.09;;;39.52;23.06
76095;BME280;64821;13.710;100.604;2023-11-19T00:32:26;101638.88;;;39.51;23.22
76095;BME280;64821;13.710;100.604;2023-11-19T00:33:29;101643.53;;;39.47;23.20
76095;BME280;64821;13.710;100.604;2023-11-19T00:34:33;101638.44;;;39.49;23.35
76095;BME280;64821;13.710;100.604;2023-11-19T00:35:37;101642.59;;;39.43;23.33
76095;BME280;64821;13.710;100.604;2023-11-19T00:36:41;101638.56;;;39.40;23.07
76095;BME280;64821;13.710;100.604;2023-11-19T00:37:45;101642.25;;;39.44;23.21
76095;BME280;64821;13.710;100.604;2023-11-19T00:38:50;101647.34;;;39.42;23.22
76095;BME280;64821;13.710;100.604;2023-11-19T00:39:55;101653.09;;;39.49;23.52
76095;BME280;64821;13.710;100.604;2023-11-19T00:40:59;101647.56;;;39.49;23.40
76095;BME280;64821;13.710;100.604;2023-11-19T00:42:04;101656.13;;;39.56;23.34
76095;BME280;64821;13.710;100.604;2023-11-19T00:43:08;101639.81;;;39.55;23.07
76095;BME280;64821;13.710;100.604;2023-11-19T00:44:12;101653.28;;;39.69;23.06
76095;BME280;64821;13.710;100.604;2023-11-19T00:45:16;101653.41;;;39.72;22.89
76095;BME280;64821;13.710;100.604;2023-11-19T00:46:19;101607.84;;;39.45;22.80
76095;BME280;64821;13.710;100.604;2023-11-19T00:47:24;101657.53;;;39.78;23.01
76095;BME280;64821;13.710;100.604;2023-11-19T00:48:28;101650.84;;;39.79;23.04
76095;BME280;64821;13.710;100.604;2023-11-19T00:49:31;101646.84;;;39.65;23.24
76095;BME280;64821;13.710;100.604;2023-11-19T00:50:35;101622.72;;;39.53;23.12
76095;BME280;64821;13.710;100.604;2023-11-19T00:51:41;101661.47;;;39.77;22.81
76095;BME280;64821;13.710;100.604;2023-11-19T00:52:45;101649.56;;;39.77;22.83
76095;BME280;64821;13.710;100.604;2023-11-19T00:53:49;101663.09;;;39.78;23.23
76095;BME280;64821;13.710;100.604;2023-11-19T00:54:54;101664.34;;;39.81;22.89
76095;BME280;64821;13.710;100.604;2023-11-19T00:55:58;101664.63;;;39.76;22.74
76095;BME280;64821;13.710;100.604;2023-11-19T00:57:02;101660.66;;;39.77;23.21
76095;BME280;64821;13.710;100.604;2023-11-19T00:58:06;101667.28;;;39.84;23.05
76095;BME280;64821;13.710;100.604;2023-11-19T00:59:09;101663.63;;;39.96;22.74
76095;BME280;64821;13.710;100.604;2023-11-19T01:00:14;101664.81;;;39.95;22.83
76095;BME280;64821;13.710;100.604;2023-11-19T01:01:18;101674.97;;;40.03;22.91
76095;BME280;64821;13.710;100.604;2023-11-19T01:02:22;101668.34;;;40.08;23.25
76095;BME280;64821;13.710;100.604;2023-11-19T01:03:26;101683.94;;;40.12;22.57
76095;BME280;64821;13.710;100.604;2023-11-19T01:04:33;101670.16;;;40.16;22.75
76095;BME280;64821;13.710;100.604;2023-11-19T01:05:37;101673.72;;;40.28;22.47
76095;BME280;64821;13.710;100.604;2023-11-19T01:06:41;101670.34;;;40.35;22.50
76095;BME280;64821;13.710;100.604;2023-11-19T01:07:48;101676.69;;;40.36;22.62
76095;BME280;64821;13.710;100.604;2023-11-19T01:08:52;101677.88;;;40.35;22.33
76095;BME280;64821;13.710;100.604;2023-11-19T01:09:58;101668.28;;;40.20;22.29
76095;BME280;64821;13.710;100.604;2023-11-19T01:11:02;101676.63;;;40.20;22.60
76095;BME280;64821;13.710;100.604;2023-11-19T01:12:06;101681.47;;;40.23;22.69
76095;BME280;64821;13.710;100.604;2023-11-19T01:13:10;101691.41;;;40.24;22.73
76095;BME280;64821;13.710;100.604;2023-11-19T01:14:14;101684.13;;;40.19;22.49
76095;BME280;64821;13.710;100.604;2023-11-19T01:15:18;101687.06;;;40.11;22.70
76095;BME280;64821;13.710;100.604;2023-11-19T01:16:22;101681.81;;;39.93;22.96
76095;BME280;64821;13.710;100.604;2023-11-19T01:17:26;101687.19;;;40.14;23.02
76095;BME280;64821;13.710;100.604;2023-11-19T01:18:30;101674.47;;;40.13;22.55
76095;BME280;64821;13.710;100.604;2023-11-19T01:19:34;101693.94;;;40.29;22.52
76095;BME280;64821;13.710;100.604;2023-11-19T01:20:38;101693.34;;;40.36;22.43
76095;BME280;64821;13.710;100.604;2023-11-19T01:21:42;101693.09;;;40.41;22.40
76095;BME280;64821;13.710;100.604;2023-11-19T01:22:45;101688.81;;;40.43;22.48
76095;BME280;64821;13.710;100.604;2023-11-19T01:23:49;101699.91;;;40.43;22.35
76095;BME280;64821;13.710;100.604;2023-11-19T01:24:53;101698.19;;;40.39;22.58
76095;BME280;64821;13.710;100.604;2023-11-19T01:25:59;101688.97;;;40.35;22.32
76095;BME280;64821;13.710;100.604;2023-11-19T01:27:03;101694.94;;;40.37;22.52
76095;BME280;64821;13.710;100.604;2023-11-19T01:28:07;101682.00;;;40.41;22.40
76095;BME280;64821;13.710;100.604;2023-11-19T01:29:11;101648.25;;;40.26;22.19
76095;BME280;64821;13.710;100.604;2023-11-19T01:30:15;101692.69;;;40.54;22.32
76095;BME280;64821;13.710;100.604;2023-11-19T01:31:19;101695.88;;;40.56;22.30
76095;BME280;64821;13.710;100.604;2023-11-19T01:32:23;101692.50;;;40.63;22.09
76095;BME280;64821;13.710;100.604;2023-11-19T01:33:27;101697.47;;;40.70;22.08
76095;BME280;64821;13.710;100.604;2023-11-19T01:34:31;101695.31;;;40.79;22.10
76095;BME280;64821;13.710;100.604;2023-11-19T01:35:34;101691.09;;;40.85;21.96
76095;BME280;64821;13.710;100.604;2023-11-19T01:36:38;101691.38;;;40.95;21.92
76095;BME280;64821;13.710;100.604;2023-11-19T01:37:42;101695.06;;;40.99;21.97
76095;BME280;64821;13.710;100.604;2023-11-19T01:38:46;101690.56;;;40.95;21.90
76095;BME280;64821;13.710;100.604;2023-11-19T01:39:50;101700.63;;;40.99;21.91
76095;BME280;64821;13.710;100.604;2023-11-19T01:40:59;101692.81;;;40.89;22.14
76095;BME280;64821;13.710;100.604;2023-11-19T01:42:02;101700.72;;;41.03;21.83
76095;BME280;64821;13.710;100.604;2023-11-19T01:43:06;101684.66;;;40.96;21.66
76095;BME280;64821;13.710;100.604;2023-11-19T01:44:10;101694.34;;;41.02;22.03
76095;BME280;64821;13.710;100.604;2023-11-19T01:45:25;101690.41;;;40.88;21.92
76095;BME280;64821;13.710;100.604;2023-11-19T01:46:31;101696.66;;;40.85;22.18
76095;BME280;64821;13.710;100.604;2023-11-19T01:47:35;101682.94;;;40.76;22.16
76095;BME280;64821;13.710;100.604;2023-11-19T01:48:50;101700.53;;;40.96;22.02
76095;BME280;64821;13.710;100.604;2023-11-19T01:49:54;101700.72;;;40.87;22.16
76095;BME280;64821;13.710;100.604;2023-11-19T01:50:58;101701.50;;;40.72;22.40
76095;BME280;64821;13.710;100.604;2023-11-19T01:52:05;101699.97;;;40.75;22.21
76095;BME280;64821;13.710;100.604;2023-11-19T01:53:09;101708.91;;;40.68;22.30
76095;BME280;64821;13.710;100.604;2023-11-19T01:54:13;101708.09;;;40.67;22.28
76095;BME280;64821;13.710;100.604;2023-11-19T01:55:18;101710.25;;;40.58;22.43
76095;BME280;64821;13.710;100.604;2023-11-19T01:56:26;101670.59;;;40.30;22.46
76095;BME280;64821;13.710;100.604;2023-11-19T01:57:30;101696.34;;;40.43;22.65
76095;BME280;64821;13.710;100.604;2023-11-19T01:58:34;101697.50;;;40.42;22.50
76095;BME280;64821;13.710;100.604;2023-11-19T01:59:38;101715.50;;;40.48;22.53
76095;BME280;64821;13.710;100.604;2023-11-19T02:00:44;101708.44;;;40.50;22.26
76095;BME280;64821;13.710;100.604;2023-11-19T02:01:48;101712.66;;;40.60;22.30
76095;BME280;64821;13.710;100.604;2023-11-19T02:03:03;101708.72;;;40.61;22.08
76095;BME280;64821;13.710;100.604;2023-11-19T02:04:09;101710.81;;;40.64;22.43
76095;BME280;64821;13.710;100.604;2023-11-19T02:05:15;101708.59;;;40.70;22.33
76095;BME280;64821;13.710;100.604;2023-11-19T02:06:19;101712.16;;;40.70;22.29
76095;BME280;64821;13.710;100.604;2023-11-19T02:07:24;101708.59;;;40.70;21.95
76095;BME280;64821;13.710;100.604;2023-11-19T02:08:29;101712.38;;;40.65;22.46
76095;BME280;64821;13.710;100.604;2023-11-19T02:09:33;101717.91;;;40.77;22.31
76095;BME280;64821;13.710;100.604;2023-11-19T02:10:38;101671.97;;;40.52;22.33
76095;BME280;64821;13.710;100.604;2023-11-19T02:11:43;101719.28;;;40.83;22.41
76095;BME280;64821;13.710;100.604;2023-11-19T02:12:47;101718.19;;;40.88;22.36
76095;BME280;64821;13.710;100.604;2023-11-19T02:13:51;101725.47;;;40.92;22.14
76095;BME280;64821;13.710;100.604;2023-11-19T02:14:56;101718.19;;;40.88;22.27
76095;BME280;64821;13.710;100.604;2023-11-19T02:15:59;101723.91;;;40.79;22.26
76095;BME280;64821;13.710;100.604;2023-11-19T02:17:04;101719.06;;;40.76;22.23
76095;BME280;64821;13.710;100.604;2023-11-19T02:18:21;101720.97;;;40.88;22.24
76095;BME280;64821;13.710;100.604;2023-11-19T02:19:25;101717.94;;;40.93;22.01
76095;BME280;64821;13.710;100.604;2023-11-19T02:20:28;101721.75;;;41.04;21.98
76095;BME280;64821;13.710;100.604;2023-11-19T02:21:32;101728.88;;;41.01;22.39
76095;BME280;64821;13.710;100.604;2023-11-19T02:22:36;101721.06;;;41.07;22.03
76095;BME280;64821;13.710;100.604;2023-11-19T02:23:41;101723.38;;;41.05;22.11
76095;BME280;64821;13.710;100.604;2023-11-19T02:24:45;101728.88;;;41.01;22.07
76095;BME280;64821;13.710;100.604;2023-11-19T02:26:02;101733.94;;;41.12;21.61
76095;BME280;64821;13.710;100.604;2023-11-19T02:27:14;101721.88;;;41.08;21.72
76095;BME280;64821;13.710;100.604;2023-11-19T02:28:21;101732.28;;;41.11;22.08
76095;BME280;64821;13.710;100.604;2023-11-19T02:29:25;101726.47;;;41.16;22.03
76095;BME280;64821;13.710;100.604;2023-11-19T02:30:29;101687.72;;;40.91;21.71
76095;BME280;64821;13.710;100.604;2023-11-19T02:31:33;101724.78;;;41.11;21.92
76095;BME280;64821;13.710;100.604;2023-11-19T02:32:37;101727.25;;;41.00;22.10
76095;BME280;64821;13.710;100.604;2023-11-19T20:01:35;101301.94;;;39.88;22.25
76095;BME280;64821;13.710;100.604;2023-11-19T20:02:39;101301.41;;;39.83;22.10
76095;BME280;64821;13.710;100.604;2023-11-19T20:03:43;101298.06;;;39.77;21.73
76095;BME280;64821;13.710;100.604;2023-11-19T20:04:46;101299.16;;;39.73;22.17
76095;BME280;64821;13.710;100.604;2023-11-19T20:05:56;101279.50;;;39.62;22.65
76095;BME280;64821;13.710;100.604;2023-11-19T20:07:00;101295.03;;;39.67;22.47
76095;BME280;64821;13.710;100.604;2023-11-19T20:08:04;101289.94;;;39.69;22.23
76095;BME280;64821;13.710;100.604;2023-11-19T20:09:08;101295.13;;;39.70;22.69
76095;BME280;64821;13.710;100.604;2023-11-19T20:10:12;101295.59;;;39.72;22.62
76095;BME280;64821;13.710;100.604;2023-11-19T20:11:16;101299.88;;;39.70;22.60
76095;BME280;64821;13.710;100.604;2023-11-19T20:12:20;101295.13;;;39.70;22.32
76095;BME280;64821;13.710;100.604;2023-11-19T20:13:24;101294.34;;;39.70;22.41
76095;BME280;64821;13.710;100.604;2023-11-19T20:14:27;101291.09;;;39.68;22.40
76095;BME280;64821;13.710;100.604;2023-11-19T20:15:31;101298.63;;;39.67;22.34
76095;BME280;64821;13.710;100.604;2023-11-19T20:16:37;101300.59;;;39.67;22.35
76095;BME280;64821;13.710;100.604;2023-11-19T20:17:41;101303.81;;;39.69;22.63
76095;BME280;64821;13.710;100.604;2023-11-19T20:18:45;101295.03;;;39.67;22.61
76095;BME280;64821;13.710;100.604;2023-11-19T20:19:48;101303.75;;;39.65;22.50
76095;BME280;64821;13.710;100.604;2023-11-19T20:20:52;101295.44;;;39.65;22.29
76095;BME280;64821;13.710;100.604;2023-11-19T20:21:56;101306.59;;;39.69;22.30
76095;BME280;64821;13.710;100.604;2023-11-19T20:23:00;101303.81;;;39.69;22.46
76095;BME280;64821;13.710;100.604;2023-11-19T20:24:04;101300.59;;;39.67;22.23
76095;BME280;64821;13.710;100.604;2023-11-19T20:25:08;101304.91;;;39.64;22.35
76095;BME280;64821;13.710;100.604;2023-11-19T20:26:12;101301.41;;;39.67;22.70
76095;BME280;64821;13.710;100.604;2023-11-19T20:27:17;101279.06;;;39.44;22.79
76095;BME280;64821;13.710;100.604;2023-11-19T20:28:21;101303.53;;;39.58;22.38
76095;BME280;64821;13.710;100.604;2023-11-19T20:29:24;101305.91;;;39.56;22.74
76095;BME280;64821;13.710;100.604;2023-11-19T20:30:30;101312.78;;;39.62;22.49
76095;BME280;64821;13.710;100.604;2023-11-19T20:31:33;101312.06;;;39.65;22.63
76095;BME280;64821;13.710;100.604;2023-11-19T20:32:39;101317.16;;;39.63;22.45
76095;BME280;64821;13.710;100.604;2023-11-19T20:33:43;101314.03;;;39.65;22.47
76095;BME280;64821;13.710;100.604;2023-11-19T20:34:47;101308.28;;;39.57;22.72
76095;BME280;64821;13.710;100.604;2023-11-19T20:35:50;101316.25;;;39.59;22.67
76095;BME280;64821;13.710;100.604;2023-11-19T20:36:54;101316.88;;;39.52;22.40
76095;BME280;64821;13.710;100.604;2023-11-19T20:37:58;101311.59;;;39.47;22.78
76095;BME280;64821;13.710;100.604;2023-11-19T20:39:02;101285.97;;;39.38;23.03
76095;BME280;64821;13.710;100.604;2023-11-19T20:40:06;101302.66;;;39.54;22.32
76095;BME280;64821;13.710;100.604;2023-11-19T20:41:10;101305.44;;;39.54;22.37
76095;BME280;64821;13.710;100.604;2023-11-19T20:42:14;101300.34;;;39.56;22.51
76095;BME280;64821;13.710;100.604;2023-11-19T20:43:18;101308.22;;;39.54;22.57
76095;BME280;64821;13.710;100.604;2023-11-19T20:44:22;101313.66;;;39.50;22.38
76095;BME280;64821;13.710;100.604;2023-11-19T20:45:26;101303.47;;;39.54;22.77
76095;BME280;64821;13.710;100.604;2023-11-19T20:46:30;101309.38;;;39.53;22.45
76095;BME280;64821;13.710;100.604;2023-11-19T20:47:33;101303.03;;;39.52;22.63
76095;BME280;64821;13.710;100.604;2023-11-19T20:48:39;101300.97;;;39.49;22.42
76095;BME280;64821;13.710;100.604;2023-11-19T20:49:43;101306.59;;;39.53;22.64
76095;BME280;64821;13.710;100.604;2023-11-19T20:50:47;101304.72;;;39.57;22.66
76095;BME280;64821;13.710;100.604;2023-11-19T20:51:50;101300.34;;;39.56;22.42
76095;BME280;64821;13.710;100.604;2023-11-19T20:52:54;101301.22;;;39.60;22.52
76095;BME280;64821;13.710;100.604;2023-11-19T20:53:59;101274.03;;;39.50;22.21
76095;BME280;64821;13.710;100.604;2023-11-19T20:55:03;101304.16;;;39.67;22.21
76095;BME280;64821;13.710;100.604;2023-11-19T20:56:07;101306.78;;;39.60;22.57
76095;BME280;64821;13.710;100.604;2023-11-19T20:57:11;101301.59;;;39.58;22.67
76095;BME280;64821;13.710;100.604;2023-11-19T20:58:14;101301.59;;;39.58;22.44
76095;BME280;64821;13.710;100.604;2023-11-19T20:59:18;101298.38;;;39.56;22.57
76095;BME280;64821;13.710;100.604;2023-11-19T21:00:22;101294.53;;;39.61;22.23
76095;BME280;64821;13.710;100.604;2023-11-19T21:01:26;101301.94;;;39.41;22.90
76095;BME280;64821;13.710;100.604;2023-11-19T21:02:30;101301.91;;;39.26;22.49
76095;BME280;64821;13.710;100.604;2023-11-19T21:03:33;101307.88;;;39.12;23.32
76095;BME280;64821;13.710;100.604;2023-11-19T21:04:39;101304.47;;;39.03;22.79
76095;BME280;64821;13.710;100.604;2023-11-19T21:05:43;101304.72;;;38.98;22.87
76095;BME280;64821;13.710;100.604;2023-11-19T21:06:46;101304.28;;;38.96;23.38
76095;BME280;64821;13.710;100.604;2023-11-19T21:07:53;101306.09;;;38.92;22.85
76095;BME280;64821;13.710;100.604;2023-11-19T21:08:57;101306.09;;;38.92;23.21
76095;BME280;64821;13.710;100.604;2023-11-19T21:10:00;101303.78;;;38.94;23.11
76095;BME280;64821;13.710;100.604;2023-11-19T21:11:08;101313.72;;;38.95;23.36
76095;BME280;64821;13.710;100.604;2023-11-19T21:12:12;101300.66;;;38.95;23.34
76095;BME280;64821;13.710;100.604;2023-11-19T21:13:16;101309.81;;;38.96;23.08
76095;BME280;64821;13.710;100.604;2023-11-19T21:14:20;101308.06;;;38.91;23.28
76095;BME280;64821;13.710;100.604;2023-11-19T21:15:24;101308.06;;;38.91;23.06
76095;BME280;64821;13.710;100.604;2023-11-19T21:16:27;101309.56;;;38.88;23.56
76095;BME280;64821;13.710;100.604;2023-11-19T21:17:31;101308.78;;;38.88;22.91
76095;BME280;64821;13.710;100.604;2023-11-19T21:18:35;101303.59;;;38.86;23.30
76095;BME280;64821;13.710;100.604;2023-11-19T21:19:41;101309.56;;;38.88;22.96
76095;BME280;64821;13.710;100.604;2023-11-19T21:20:48;101286.31;;;38.77;23.13
76095;BME280;64821;13.710;100.604;2023-11-19T21:21:52;101302.88;;;38.90;23.50
76095;BME280;64821;13.710;100.604;2023-11-19T21:22:55;101304.41;;;38.87;23.20
76095;BME280;64821;13.710;100.604;2023-11-19T21:23:59;101293.56;;;38.82;23.36
76095;BME280;64821;13.710;100.604;2023-11-19T21:25:04;101294.81;;;38.84;23.27
76095;BME280;64821;13.710;100.604;2023-11-19T21:26:08;101294.47;;;38.86;23.00
76095;BME280;64821;13.710;100.604;2023-11-19T21:27:11;101300.47;;;38.88;23.30
76095;BME280;64821;13.710;100.604;2023-11-19T21:28:16;101298.88;;;38.87;23.34
76095;BME280;64821;13.710;100.604;2023-11-19T21:29:19;101295.28;;;38.86;23.00
76095;BME280;64821;13.710;100.604;2023-11-19T21:30:23;101302.31;;;38.84;23.62
76095;BME280;64821;13.710;100.604;2023-11-19T21:31:27;101296.59;;;38.77;23.20
76095;BME280;64821;13.710;100.604;2023-11-19T21:32:31;101303.84;;;38.81;23.02
76095;BME280;64821;13.710;100.604;2023-11-19T21:33:35;101273.78;;;38.68;22.85
76095;BME280;64821;13.710;100.604;2023-11-19T21:34:40;101305.91;;;38.84;23.51
76095;BME280;64821;13.710;100.604;2023-11-19T21:35:44;101307.97;;;38.88;23.23
76095;BME280;64821;13.710;100.604;2023-11-19T21:36:48;101308.31;;;38.86;22.96
76095;BME280;64821;13.710;100.604;2023-11-19T21:37:52;101309.56;;;38.88;22.84
76095;BME280;64821;13.710;100.604;2023-11-19T21:38:56;101304.81;;;38.89;23.09
76095;BME280;64821;13.710;100.604;2023-11-19T21:40:00;101305.56;;;38.86;22.91
76095;BME280;64821;13.710;100.604;2023-11-19T21:41:04;101307.06;;;38.83;23.14
76095;BME280;64821;13.710;100.604;2023-11-19T21:42:08;101307.31;;;38.78;23.15
76095;BME280;64821;13.710;100.604;2023-11-19T21:43:11;101309.63;;;38.76;23.37
76095;BME280;64821;13.710;100.604;2023-11-19T21:44:15;101310.34;;;38.73;23.58
76095;BME280;64821;13.710;100.604;2023-11-19T21:45:19;101314.25;;;38.72;23.24
76095;BME280;64821;13.710;100.604;2023-11-19T21:46:23;101318.19;;;38.71;23.23
76095;BME280;64821;13.710;100.604;2023-11-19T21:47:27;101282.94;;;38.56;23.36
76095;BME280;64821;13.710;100.604;2023-11-19T21:48:31;101308.25;;;38.70;23.28
76095;BME280;64821;13.710;100.604;2023-11-19T21:49:34;101317.28;;;38.67;23.31
76095;BME280;64821;13.710;100.604;2023-11-19T21:50:40;101301.59;;;38.59;23.26
76095;BME280;64821;13.710;100.604;2023-11-19T21:51:44;101309.47;;;38.57;23.61
76095;BME280;64821;13.710;100.604;2023-11-19T21:52:48;101315.91;;;38.61;23.58
76095;BME280;64821;13.710;100.604;2023-11-19T21:53:52;101317.53;;;38.62;23.79
76095;BME280;64821;13.710;100.604;2023-11-19T21:54:55;101320.63;;;38.61;23.25
76095;BME280;64821;13.710;100.604;2023-11-19T21:55:59;101326.53;;;38.59;23.13
76095;BME280;64821;13.710;100.604;2023-11-19T21:57:06;101323.06;;;38.62;23.25
76095;BME280;64821;13.710;100.604;2023-11-19T21:58:10;101318.22;;;38.59;23.48
76095;BME280;64821;13.710;100.604;2023-11-19T21:59:14;101332.19;;;38.63;23.46
76095;BME280;64821;13.710;100.604;2023-11-19T22:00:18;101325.03;;;38.62;23.52
76095;BME280;64821;13.710;100.604;2023-11-19T22:01:22;101321.44;;;38.61;23.81
76095;BME280;64821;13.710;100.604;2023-11-19T22:02:26;101329.06;;;38.64;23.52
76095;BME280;64821;13.710;100.604;2023-11-19T22:03:30;101325.13;;;38.65;23.53
76095;BME280;64821;13.710;100.604;2023-11-19T22:04:34;101319.59;;;38.65;23.12
76095;BME280;64821;13.710;100.604;2023-11-19T22:05:40;101328.59;;;38.62;23.45
76095;BME280;64821;13.710;100.604;2023-11-19T22:06:43;101320.56;;;38.57;23.95
76095;BME280;64821;13.710;100.604;2023-11-19T22:07:47;101328.50;;;38.59;23.77
76095;BME280;64821;13.710;100.604;2023-11-19T22:08:51;101326.91;;;38.58;23.53
76095;BME280;64821;13.710;100.604;2023-11-19T22:09:55;101323.53;;;38.52;23.17
76095;BME280;64821;13.710;100.604;2023-11-19T22:10:59;101327.34;;;38.47;23.95
76095;BME280;64821;13.710;100.604;2023-11-19T22:12:03;101327.13;;;38.53;23.24
76095;BME280;64821;13.710;100.604;2023-11-19T22:13:07;101325.00;;;38.49;23.74
76095;BME280;64821;13.710;100.604;2023-11-19T22:14:11;101308.81;;;38.36;23.69
76095;BME280;64821;13.710;100.604;2023-11-19T22:15:15;101332.88;;;38.47;23.90
76095;BME280;64821;13.710;100.604;2023-11-19T22:16:19;101333.56;;;38.44;23.58
76095;BME280;64821;13.710;100.604;2023-11-19T22:17:23;101341.53;;;38.46;23.75
76095;BME280;64821;13.710;100.604;2023-11-19T22:18:26;101329.66;;;38.45;23.72
76095;BME280;64821;13.710;100.604;2023-11-19T22:19:30;101334.38;;;38.45;23.24
76095;BME280;64821;13.710;100.604;2023-11-19T22:20:34;101333.22;;;38.46;23.57
76095;BME280;64821;13.710;100.604;2023-11-19T22:21:40;101310.91;;;38.27;23.62
76095;BME280;64821;13.710;100.604;2023-11-19T22:22:44;101338.56;;;38.39;23.67
76095;BME280;64821;13.710;100.604;2023-11-19T22:23:48;101346.88;;;38.39;23.42
76095;BME280;64821;13.710;100.604;2023-11-19T22:24:51;101343.97;;;38.47;23.96
76095;BME280;64821;13.710;100.604;2023-11-19T22:25:55;101334.84;;;38.47;23.38
76095;BME280;64821;13.710;100.604;2023-11-19T22:26:59;101352.50;;;38.55;23.70
76095;BME280;64821;13.710;100.604;2023-11-19T22:28:03;101338.44;;;38.47;23.44
76095;BME280;64821;13.710;100.604;2023-11-19T22:29:07;101347.31;;;38.53;23.49
76095;BME280;64821;13.710;100.604;2023-11-19T22:30:13;101350.19;;;38.57;24.08
76095;BME280;64821;13.710;100.604;2023-11-19T22:31:17;101348.25;;;38.57;23.22
76095;BME280;64821;13.710;100.604;2023-11-19T22:32:21;101351.00;;;38.57;23.27
76095;BME280;64821;13.710;100.604;2023-11-19T22:33:28;101348.94;;;38.54;23.54
76095;BME280;64821;13.710;100.604;2023-11-19T22:34:31;101354.22;;;38.47;23.28
76095;BME280;64821;13.710;100.604;2023-11-19T22:35:35;101356.88;;;38.43;24.10
76095;BME280;64821;13.710;100.604;2023-11-19T22:36:41;101358.03;;;38.42;23.54
76095;BME280;64821;13.710;100.604;2023-11-19T22:37:44;101350.66;;;38.34;23.38
76095;BME280;64821;13.710;100.604;2023-11-19T22:38:48;101358.63;;;38.36;23.66
76095;BME280;64821;13.710;100.604;2023-11-19T22:39:52;101354.25;;;38.35;23.59
76095;BME280;64821;13.710;100.604;2023-11-19T22:40:56;101358.50;;;38.32;23.86
76095;BME280;64821;13.710;100.604;2023-11-19T22:42:00;101358.75;;;38.27;24.04
76095;BME280;64821;13.710;100.604;2023-11-19T22:43:04;101360.00;;;38.30;23.84
76095;BME280;64821;13.710;100.604;2023-11-19T22:44:08;101361.75;;;38.34;23.66
76095;BME280;64821;13.710;100.604;2023-11-19T22:45:12;101358.03;;;38.30;23.90
76095;BME280;64821;13.710;100.604;2023-11-19T22:46:16;101350.00;;;38.25;23.39
76095;BME280;64821;13.710;100.604;2023-11-19T22:47:23;101362.75;;;38.30;23.44
76095;BME280;64821;13.710;100.604;2023-11-19T22:48:27;101357.94;;;38.27;24.15
76095;BME280;64821;13.710;100.604;2023-11-19T22:49:31;101371.78;;;38.27;23.48
76095;BME280;64821;13.710;100.604;2023-11-19T22:50:34;101372.25;;;38.29;23.97
76095;BME280;64821;13.710;100.604;2023-11-19T22:51:40;101364.75;;;38.29;23.81
76095;BME280;64821;13.710;100.604;2023-11-19T22:52:44;101346.06;;;38.14;23.93
76095;BME280;64821;13.710;100.604;2023-11-19T22:53:48;101371.66;;;38.23;24.38
76095;BME280;64821;13.710;100.604;2023-11-19T22:54:52;101376.03;;;38.24;24.00
76095;BME280;64821;13.710;100.604;2023-11-19T22:55:56;101370.16;;;38.26;23.75